PWSweather.com
Personal Weather Stations
Station Observations
KIDJEROME
Sse Jerome Butte , Jerome, ID 83338

Sse Jerome Butte Jerome, ID 83338

Lat: 42.6981891, Lon: -114.4041362

Elevation: 3960

Station Type: Davis Vantage Pro 2

High Low Average
Temperature 48.3°F9.1°F 39.5°F4.2°F 42.2°F5.7°F
Dew Point 44.6°F7.0°F 39.5°F4.2°F 41.2°F5.1°F
Winds 15.0 mph NW24.1 mph NW Calm Calm 5.9 mph 9.5 mph
Wind Gusts 22.0 mph35.4 mph -- 9.5 mph15.3 mph
Humidity 100% 79% 96%
Pressure 29.79 in1008.80 in 29.62 in1003.00 in -
Precipitation 2.07 in52.60 in - -
Hour Temp Dew Point Humidity Winds Wind Gusts Pressure Precip Precip Rate Daily Precip Total
12:00 AM 40.3°F4.6°C 40.3°F4.6°C 100% 9.0 mph NE14.5 kmh NE 14.0 mph22.5 kmh 29.78 in1008.5 mb 0.00 in0.0 mm 0.00 in0.0 mm 0.00 in0.0 mm
12:15 AM 40.3°F4.6°C 40.3°F4.6°C 100% 9.0 mph ENE14.5 kmh ENE 12.0 mph19.3 kmh 29.79 in1008.8 mb 0.00 in0.0 mm 0.00 in0.0 mm 0.00 in0.0 mm
12:30 AM 40.2°F4.6°C 40.2°F4.6°C 100% 9.0 mph ENE14.5 kmh ENE 12.0 mph19.3 kmh 29.78 in1008.5 mb 0.00 in0.0 mm 0.00 in0.0 mm 0.00 in0.0 mm
12:45 AM 40.2°F4.6°C 40.2°F4.6°C 100% 8.0 mph ENE12.9 kmh ENE 12.0 mph19.3 kmh 29.77 in1008.1 mb 0.00 in0.0 mm 0.00 in0.0 mm 0.00 in0.0 mm
01:00 AM 40.1°F4.5°C 40.1°F4.5°C 100% 9.0 mph ENE14.5 kmh ENE 12.0 mph19.3 kmh 29.77 in1008.1 mb 0.00 in0.0 mm 0.00 in0.0 mm 0.00 in0.0 mm
01:15 AM 39.9°F4.4°C 39.9°F4.4°C 100% 11.0 mph ENE17.7 kmh ENE 17.0 mph27.4 kmh 29.75 in1007.5 mb 0.00 in0.0 mm 0.00 in0.0 mm 0.00 in0.0 mm
01:30 AM 40.2°F4.6°C 40.2°F4.6°C 100% 10.0 mph ENE16.1 kmh ENE 12.0 mph19.3 kmh 29.75 in1007.5 mb 0.01 in0.3 mm 0.04 in1.0 mm 0.01 in0.3 mm
01:45 AM 40.1°F4.5°C 40.1°F4.5°C 100% 10.0 mph NE16.1 kmh NE 14.0 mph22.5 kmh 29.75 in1007.5 mb 0.01 in0.3 mm 0.00 in0.0 mm 0.01 in0.3 mm
02:00 AM 40.1°F4.5°C 40.1°F4.5°C 100% 7.0 mph ENE11.3 kmh ENE 10.0 mph16.1 kmh 29.74 in1007.1 mb 0.01 in0.3 mm 0.00 in0.0 mm 0.01 in0.3 mm
02:15 AM 40.1°F4.5°C 40.1°F4.5°C 100% 7.0 mph NE11.3 kmh NE 10.0 mph16.1 kmh 29.73 in1006.8 mb 0.01 in0.3 mm 0.00 in0.0 mm 0.01 in0.3 mm
02:30 AM 40.1°F4.5°C 40.1°F4.5°C 100% 6.0 mph ENE9.7 kmh ENE 10.0 mph16.1 kmh 29.72 in1006.4 mb 0.00 in0.0 mm 0.00 in0.0 mm 0.01 in0.3 mm
02:45 AM 40.1°F4.5°C 40.1°F4.5°C 100% 6.0 mph NE9.7 kmh NE 9.0 mph14.5 kmh 29.71 in1006.1 mb 0.00 in0.0 mm 0.00 in0.0 mm 0.01 in0.3 mm
03:00 AM 40.3°F4.6°C 40.3°F4.6°C 100% 6.0 mph ENE9.7 kmh ENE 10.0 mph16.1 kmh 29.70 in1005.8 mb 0.00 in0.0 mm 0.00 in0.0 mm 0.01 in0.3 mm
03:15 AM 40.3°F4.6°C 40.3°F4.6°C 100% 6.0 mph ENE9.7 kmh ENE 9.0 mph14.5 kmh 29.70 in1005.8 mb 0.00 in0.0 mm 0.00 in0.0 mm 0.01 in0.3 mm
03:30 AM 40.5°F4.7°C 40.5°F4.7°C 100% 6.0 mph ENE9.7 kmh ENE 9.0 mph14.5 kmh 29.69 in1005.4 mb 0.00 in0.0 mm 0.00 in0.0 mm 0.01 in0.3 mm
03:45 AM 40.8°F4.9°C 40.8°F4.9°C 100% 6.0 mph ENE9.7 kmh ENE 10.0 mph16.1 kmh 29.69 in1005.4 mb 0.00 in0.0 mm 0.00 in0.0 mm 0.01 in0.3 mm
04:00 AM 40.9°F4.9°C 40.9°F4.9°C 100% 6.0 mph NE9.7 kmh NE 9.0 mph14.5 kmh 29.68 in1005.1 mb 0.00 in0.0 mm 0.00 in0.0 mm 0.01 in0.3 mm
04:15 AM 41.1°F5.1°C 41.1°F5.1°C 100% 5.0 mph NE8.0 kmh NE 7.0 mph11.3 kmh 29.68 in1005.1 mb 0.00 in0.0 mm 0.00 in0.0 mm 0.01 in0.3 mm
04:30 AM 41.1°F5.1°C 41.1°F5.1°C 100% 5.0 mph NE8.0 kmh NE 9.0 mph14.5 kmh 29.68 in1005.1 mb 0.00 in0.0 mm 0.00 in0.0 mm 0.01 in0.3 mm
04:45 AM 41.1°F5.1°C 41.1°F5.1°C 100% 4.0 mph NE6.4 kmh NE 8.0 mph12.9 kmh 29.68 in1005.1 mb 0.00 in0.0 mm 0.00 in0.0 mm 0.01 in0.3 mm
05:00 AM 41.2°F5.1°C 41.2°F5.1°C 100% 4.0 mph NE6.4 kmh NE 7.0 mph11.3 kmh 29.68 in1005.1 mb 0.00 in0.0 mm 0.00 in0.0 mm 0.01 in0.3 mm
05:15 AM 41.1°F5.1°C 41.1°F5.1°C 100% 4.0 mph NE6.4 kmh NE 9.0 mph14.5 kmh 29.66 in1004.4 mb 0.00 in0.0 mm 0.00 in0.0 mm 0.01 in0.3 mm
05:30 AM 40.8°F4.9°C 40.8°F4.9°C 100% 4.0 mph ENE6.4 kmh ENE 7.0 mph11.3 kmh 29.67 in1004.7 mb 0.00 in0.0 mm 0.00 in0.0 mm 0.01 in0.3 mm
05:45 AM 41.9°F5.5°C 41.9°F5.5°C 100% 6.0 mph NE9.7 kmh NE 11.0 mph17.7 kmh 29.65 in1004.1 mb 0.00 in0.0 mm 0.00 in0.0 mm 0.01 in0.3 mm
06:00 AM 42.1°F5.6°C 42.1°F5.6°C 100% 1.0 mph E1.6 kmh E 4.0 mph6.4 kmh 29.65 in1004.1 mb 0.00 in0.0 mm 0.00 in0.0 mm 0.01 in0.3 mm
06:15 AM 42.1°F5.6°C 42.1°F5.6°C 100% 1.0 mph E1.6 kmh E 5.0 mph8.0 kmh 29.64 in1003.7 mb 0.00 in0.0 mm 0.00 in0.0 mm 0.01 in0.3 mm
06:30 AM 42.5°F5.8°C 42.2°F5.7°C 99% 1.0 mph E1.6 kmh E 2.0 mph3.2 kmh 29.63 in1003.4 mb 0.00 in0.0 mm 0.00 in0.0 mm 0.01 in0.3 mm
06:45 AM 42.8°F6.0°C 42.3°F5.7°C 98% Calm Calm 2.0 mph3.2 kmh 29.63 in1003.4 mb 0.00 in0.0 mm 0.00 in0.0 mm 0.01 in0.3 mm
07:00 AM 44.3°F6.8°C 43.2°F6.2°C 96% 3.0 mph NW4.8 kmh NW 6.0 mph9.7 kmh 29.62 in1003.0 mb 0.00 in0.0 mm 0.00 in0.0 mm 0.01 in0.3 mm
07:15 AM 45.8°F7.7°C 43.3°F6.3°C 91% 4.0 mph WSW6.4 kmh WSW 6.0 mph9.7 kmh 29.62 in1003.0 mb 0.00 in0.0 mm 0.00 in0.0 mm 0.01 in0.3 mm
07:30 AM 46.4°F8.0°C 43.0°F6.1°C 88% 3.0 mph WSW4.8 kmh WSW 5.0 mph8.0 kmh 29.64 in1003.7 mb 0.00 in0.0 mm 0.00 in0.0 mm 0.01 in0.3 mm
07:45 AM 47.4°F8.6°C 42.8°F6.0°C 84% 5.0 mph W8.0 kmh W 10.0 mph16.1 kmh 29.64 in1003.7 mb 0.00 in0.0 mm 0.00 in0.0 mm 0.01 in0.3 mm
08:00 AM 48.3°F9.1°C 42.4°F5.8°C 80% 8.0 mph W12.9 kmh W 11.0 mph17.7 kmh 29.64 in1003.7 mb 0.00 in0.0 mm 0.00 in0.0 mm 0.01 in0.3 mm
08:15 AM 48.3°F9.1°C 42.1°F5.6°C 79% 7.0 mph W11.3 kmh W 8.0 mph12.9 kmh 29.64 in1003.7 mb 0.00 in0.0 mm 0.00 in0.0 mm 0.01 in0.3 mm
08:30 AM 47.4°F8.6°C 41.9°F5.5°C 81% 4.0 mph WNW6.4 kmh WNW 6.0 mph9.7 kmh 29.64 in1003.7 mb 0.00 in0.0 mm 0.00 in0.0 mm 0.01 in0.3 mm
08:45 AM 47.4°F8.6°C 41.9°F5.5°C 81% 6.0 mph NW9.7 kmh NW 8.0 mph12.9 kmh 29.64 in1003.7 mb 0.00 in0.0 mm 0.00 in0.0 mm 0.01 in0.3 mm
09:00 AM 47.7°F8.7°C 41.8°F5.4°C 80% 5.0 mph NW8.0 kmh NW 8.0 mph12.9 kmh 29.64 in1003.7 mb 0.00 in0.0 mm 0.00 in0.0 mm 0.01 in0.3 mm
09:15 AM 47.7°F8.7°C 41.8°F5.4°C 80% 6.0 mph WNW9.7 kmh WNW 8.0 mph12.9 kmh 29.64 in1003.7 mb 0.00 in0.0 mm 0.00 in0.0 mm 0.01 in0.3 mm
09:30 AM 47.6°F8.7°C 41.7°F5.4°C 80% 6.0 mph WSW9.7 kmh WSW 8.0 mph12.9 kmh 29.64 in1003.7 mb 0.00 in0.0 mm 0.00 in0.0 mm 0.01 in0.3 mm
09:45 AM 46.4°F8.0°C 41.8°F5.4°C 84% 4.0 mph SSW6.4 kmh SSW 4.0 mph6.4 kmh 29.65 in1004.1 mb 0.00 in0.0 mm 0.00 in0.0 mm 0.01 in0.3 mm
10:00 AM 46.1°F7.8°C 42.4°F5.8°C 87% 2.0 mph SW3.2 kmh SW 3.0 mph4.8 kmh 29.65 in1004.1 mb 0.00 in0.0 mm 0.00 in0.0 mm 0.01 in0.3 mm
10:15 AM 46.2°F7.9°C 42.5°F5.8°C 87% 1.0 mph W1.6 kmh W 4.0 mph6.4 kmh 29.66 in1004.4 mb 0.00 in0.0 mm 0.00 in0.0 mm 0.01 in0.3 mm
10:30 AM 46.7°F8.2°C 42.7°F5.9°C 86% 5.0 mph WNW8.0 kmh WNW 14.0 mph22.5 kmh 29.68 in1005.1 mb 0.01 in0.3 mm 0.04 in1.0 mm 0.02 in0.5 mm
10:45 AM 46.0°F7.8°C 42.6°F5.9°C 88% 8.0 mph NNW12.9 kmh NNW 15.0 mph24.1 kmh 29.67 in1004.7 mb 0.02 in0.5 mm 0.04 in1.0 mm 0.03 in0.8 mm
11:00 AM 45.2°F7.3°C 42.4°F5.8°C 90% 14.0 mph NW22.5 kmh NW 21.0 mph33.8 kmh 29.68 in1005.1 mb 0.02 in0.5 mm 0.00 in0.0 mm 0.03 in0.8 mm
11:15 AM 45.1°F7.3°C 42.9°F6.1°C 92% 15.0 mph NW24.1 kmh NW 22.0 mph35.4 kmh 29.68 in1005.1 mb 0.02 in0.5 mm 0.00 in0.0 mm 0.03 in0.8 mm
11:30 AM 44.9°F7.2°C 43.3°F6.3°C 94% 14.0 mph NW22.5 kmh NW 19.0 mph30.6 kmh 29.68 in1005.1 mb 0.01 in0.3 mm 0.00 in0.0 mm 0.03 in0.8 mm
11:45 AM 45.1°F7.3°C 44.0°F6.7°C 96% 13.0 mph WNW20.9 kmh WNW 21.0 mph33.8 kmh 29.68 in1005.1 mb 0.00 in0.0 mm 0.00 in0.0 mm 0.03 in0.8 mm
12:00 PM 44.9°F7.2°C 44.4°F6.9°C 98% 13.0 mph WNW20.9 kmh WNW 18.0 mph29.0 kmh 29.68 in1005.1 mb 0.00 in0.0 mm 0.00 in0.0 mm 0.03 in0.8 mm
12:15 PM 44.6°F7.0°C 44.6°F7.0°C 100% 13.0 mph W20.9 kmh W 18.0 mph29.0 kmh 29.67 in1004.7 mb 0.00 in0.0 mm 0.00 in0.0 mm 0.03 in0.8 mm
12:30 PM 44.5°F6.9°C 44.5°F6.9°C 100% 10.0 mph W16.1 kmh W 16.0 mph25.7 kmh 29.67 in1004.7 mb 0.00 in0.0 mm 0.00 in0.0 mm 0.03 in0.8 mm
12:45 PM 43.9°F6.6°C 43.9°F6.6°C 100% 9.0 mph WNW14.5 kmh WNW 15.0 mph24.1 kmh 29.66 in1004.4 mb 0.02 in0.5 mm 0.08 in2.0 mm 0.05 in1.3 mm
01:00 PM 43.6°F6.4°C 43.6°F6.4°C 100% 11.0 mph WNW17.7 kmh WNW 16.0 mph25.7 kmh 29.66 in1004.4 mb 0.04 in1.0 mm 0.03 in0.8 mm 0.07 in1.8 mm
01:15 PM 43.6°F6.4°C 43.6°F6.4°C 100% 8.0 mph W12.9 kmh W 17.0 mph27.4 kmh 29.66 in1004.4 mb 0.05 in1.3 mm 0.04 in1.0 mm 0.08 in2.0 mm
01:30 PM 43.6°F6.4°C 43.6°F6.4°C 100% 11.0 mph W17.7 kmh W 17.0 mph27.4 kmh 29.67 in1004.7 mb 0.07 in1.8 mm 0.08 in2.0 mm 0.10 in2.5 mm
01:45 PM 43.9°F6.6°C 43.4°F6.3°C 98% 12.0 mph W19.3 kmh W 15.0 mph24.1 kmh 29.66 in1004.4 mb 0.05 in1.3 mm 0.00 in0.0 mm 0.10 in2.5 mm
02:00 PM 43.6°F6.4°C 42.5°F5.8°C 96% 11.0 mph WSW17.7 kmh WSW 15.0 mph24.1 kmh 29.67 in1004.7 mb 0.05 in1.3 mm 0.00 in0.0 mm 0.12 in3.0 mm
02:15 PM 43.2°F6.2°C 41.3°F5.2°C 93% 9.0 mph W14.5 kmh W 17.0 mph27.4 kmh 29.68 in1005.1 mb 0.05 in1.3 mm 0.00 in0.0 mm 0.13 in3.3 mm
02:30 PM 43.3°F6.3°C 41.1°F5.1°C 92% 10.0 mph W16.1 kmh W 15.0 mph24.1 kmh 29.67 in1004.7 mb 0.03 in0.8 mm 0.00 in0.0 mm 0.13 in3.3 mm
02:45 PM 43.5°F6.4°C 41.3°F5.2°C 92% 8.0 mph WSW12.9 kmh WSW 13.0 mph20.9 kmh 29.67 in1004.7 mb 0.04 in1.0 mm 0.04 in1.0 mm 0.14 in3.6 mm
03:00 PM 43.2°F6.2°C 41.0°F5.0°C 92% 9.0 mph W14.5 kmh W 11.0 mph17.7 kmh 29.67 in1004.7 mb 0.03 in0.8 mm 0.00 in0.0 mm 0.15 in3.8 mm
03:15 PM 43.1°F6.2°C 41.2°F5.1°C 93% 7.0 mph SW11.3 kmh SW 11.0 mph17.7 kmh 29.68 in1005.1 mb 0.03 in0.8 mm 0.00 in0.0 mm 0.16 in4.1 mm
03:30 PM 42.6°F5.9°C 41.0°F5.0°C 94% 5.0 mph SW8.0 kmh SW 7.0 mph11.3 kmh 29.67 in1004.7 mb 0.04 in1.0 mm 0.04 in1.0 mm 0.17 in4.3 mm
03:45 PM 42.5°F5.8°C 41.4°F5.2°C 96% 4.0 mph SW6.4 kmh SW 6.0 mph9.7 kmh 29.67 in1004.7 mb 0.04 in1.0 mm 0.00 in0.0 mm 0.18 in4.6 mm
04:00 PM 42.3°F5.7°C 41.8°F5.4°C 98% 5.0 mph SSW8.0 kmh SSW 7.0 mph11.3 kmh 29.67 in1004.7 mb 0.05 in1.3 mm 0.01 in0.3 mm 0.20 in5.1 mm
04:15 PM 42.1°F5.6°C 41.8°F5.4°C 99% 5.0 mph S8.0 kmh S 8.0 mph12.9 kmh 29.67 in1004.7 mb 0.04 in1.0 mm 0.00 in0.0 mm 0.20 in5.1 mm
04:30 PM 41.6°F5.3°C 41.6°F5.3°C 100% 5.0 mph SSW8.0 kmh SSW 8.0 mph12.9 kmh 29.67 in1004.7 mb 0.06 in1.5 mm 0.08 in2.0 mm 0.23 in5.8 mm
04:45 PM 41.1°F5.1°C 41.1°F5.1°C 100% 6.0 mph S9.7 kmh S 9.0 mph14.5 kmh 29.68 in1005.1 mb 0.10 in2.5 mm 0.16 in4.1 mm 0.28 in7.1 mm
05:00 PM 40.6°F4.8°C 40.6°F4.8°C 100% 6.0 mph S9.7 kmh S 9.0 mph14.5 kmh 29.68 in1005.1 mb 0.13 in3.3 mm 0.04 in1.0 mm 0.33 in8.4 mm
05:15 PM 40.5°F4.7°C 40.5°F4.7°C 100% 6.0 mph S9.7 kmh S 9.0 mph14.5 kmh 29.68 in1005.1 mb 0.15 in3.8 mm 0.08 in2.0 mm 0.36 in9.1 mm
05:30 PM 40.2°F4.6°C 40.2°F4.6°C 100% 6.0 mph S9.7 kmh S 9.0 mph14.5 kmh 29.68 in1005.1 mb 0.20 in5.1 mm 0.20 in5.1 mm 0.43 in10.9 mm
05:45 PM 39.9°F4.4°C 39.9°F4.4°C 100% 6.0 mph S9.7 kmh S 10.0 mph16.1 kmh 29.68 in1005.1 mb 0.19 in4.8 mm 0.00 in0.0 mm 0.47 in11.9 mm
06:00 PM 39.8°F4.3°C 39.8°F4.3°C 100% 7.0 mph S11.3 kmh S 9.0 mph14.5 kmh 29.67 in1004.7 mb 0.15 in3.8 mm 0.00 in0.0 mm 0.48 in12.2 mm
06:15 PM 39.8°F4.3°C 39.8°F4.3°C 100% 5.0 mph S8.0 kmh S 9.0 mph14.5 kmh 29.67 in1004.7 mb 0.13 in3.3 mm 0.00 in0.0 mm 0.49 in12.4 mm
06:30 PM 39.8°F4.3°C 39.8°F4.3°C 100% 6.0 mph S9.7 kmh S 9.0 mph14.5 kmh 29.67 in1004.7 mb 0.06 in1.5 mm 0.00 in0.0 mm 0.49 in12.4 mm
06:45 PM 39.8°F4.3°C 39.8°F4.3°C 100% 7.0 mph S11.3 kmh S 10.0 mph16.1 kmh 29.67 in1004.7 mb 0.02 in0.5 mm 0.00 in0.0 mm 0.49 in12.4 mm
07:00 PM 39.8°F4.3°C 39.8°F4.3°C 100% 3.0 mph SSE4.8 kmh SSE 5.0 mph8.0 kmh 29.66 in1004.4 mb 0.02 in0.5 mm 0.00 in0.0 mm 0.50 in12.7 mm
07:15 PM 39.9°F4.4°C 39.9°F4.4°C 100% 3.0 mph S4.8 kmh S 6.0 mph9.7 kmh 29.67 in1004.7 mb 0.01 in0.3 mm 0.00 in0.0 mm 0.50 in12.7 mm
07:30 PM 39.8°F4.3°C 39.8°F4.3°C 100% 2.0 mph SE3.2 kmh SE 6.0 mph9.7 kmh 29.65 in1004.1 mb 0.02 in0.5 mm 0.04 in1.0 mm 0.51 in13.0 mm
07:45 PM 39.8°F4.3°C 39.8°F4.3°C 100% 3.0 mph SE4.8 kmh SE 7.0 mph11.3 kmh 29.67 in1004.7 mb 0.02 in0.5 mm 0.00 in0.0 mm 0.51 in13.0 mm
08:00 PM 39.8°F4.3°C 39.8°F4.3°C 100% 3.0 mph SE4.8 kmh SE 5.0 mph8.0 kmh 29.66 in1004.4 mb 0.01 in0.3 mm 0.00 in0.0 mm 0.51 in13.0 mm
08:15 PM 39.8°F4.3°C 39.8°F4.3°C 100% 2.0 mph SE3.2 kmh SE 4.0 mph6.4 kmh 29.66 in1004.4 mb 0.01 in0.3 mm 0.00 in0.0 mm 0.51 in13.0 mm
08:30 PM 39.9°F4.4°C 39.9°F4.4°C 100% 2.0 mph E3.2 kmh E 3.0 mph4.8 kmh 29.65 in1004.1 mb 0.00 in0.0 mm 0.00 in0.0 mm 0.51 in13.0 mm
08:45 PM 39.9°F4.4°C 39.9°F4.4°C 100% 2.0 mph E3.2 kmh E 4.0 mph6.4 kmh 29.66 in1004.4 mb 0.00 in0.0 mm 0.00 in0.0 mm 0.51 in13.0 mm
09:00 PM 39.9°F4.4°C 39.9°F4.4°C 100% Calm Calm 4.0 mph6.4 kmh 29.65 in1004.1 mb 0.00 in0.0 mm 0.00 in0.0 mm 0.51 in13.0 mm
09:15 PM 40.1°F4.5°C 40.1°F4.5°C 100% 1.0 mph E1.6 kmh E 1.0 mph1.6 kmh 29.66 in1004.4 mb 0.00 in0.0 mm 0.00 in0.0 mm 0.51 in13.0 mm
09:30 PM 39.9°F4.4°C 39.9°F4.4°C 100% Calm Calm -- 29.67 in1004.7 mb 0.00 in0.0 mm 0.00 in0.0 mm 0.51 in13.0 mm
09:45 PM 39.9°F4.4°C 39.9°F4.4°C 100% 1.0 mph ENE1.6 kmh ENE 4.0 mph6.4 kmh 29.66 in1004.4 mb 0.00 in0.0 mm 0.00 in0.0 mm 0.51 in13.0 mm
10:00 PM 40.1°F4.5°C 40.1°F4.5°C 100% 1.0 mph NE1.6 kmh NE 3.0 mph4.8 kmh 29.67 in1004.7 mb 0.01 in0.3 mm 0.01 in0.3 mm 0.52 in13.2 mm
10:15 PM 39.9°F4.4°C 39.9°F4.4°C 100% 1.0 mph NE1.6 kmh NE 2.0 mph3.2 kmh 29.66 in1004.4 mb 0.01 in0.3 mm 0.00 in0.0 mm 0.52 in13.2 mm
10:30 PM 39.8°F4.3°C 39.8°F4.3°C 100% Calm Calm 4.0 mph6.4 kmh 29.68 in1005.1 mb 0.01 in0.3 mm 0.00 in0.0 mm 0.52 in13.2 mm
10:45 PM 39.9°F4.4°C 39.9°F4.4°C 100% 1.0 mph NW1.6 kmh NW 4.0 mph6.4 kmh 29.68 in1005.1 mb 0.01 in0.3 mm 0.00 in0.0 mm 0.52 in13.2 mm
11:00 PM 40.1°F4.5°C 40.1°F4.5°C 100% 3.0 mph W4.8 kmh W 9.0 mph14.5 kmh 29.68 in1005.1 mb 0.00 in0.0 mm 0.00 in0.0 mm 0.52 in13.2 mm
11:15 PM 39.9°F4.4°C 39.9°F4.4°C 100% 7.0 mph WSW11.3 kmh WSW 10.0 mph16.1 kmh 29.68 in1005.1 mb 0.00 in0.0 mm 0.00 in0.0 mm 0.52 in13.2 mm
11:30 PM 39.9°F4.4°C 39.9°F4.4°C 100% 6.0 mph WSW9.7 kmh WSW 9.0 mph14.5 kmh 29.69 in1005.4 mb 0.00 in0.0 mm 0.00 in0.0 mm 0.52 in13.2 mm
11:45 PM 39.5°F4.2°C 39.5°F4.2°C 100% 9.0 mph WSW14.5 kmh WSW 18.0 mph29.0 kmh 29.68 in1005.1 mb 0.00 in0.0 mm 0.00 in0.0 mm 0.52 in13.2 mm